Pagrindinis puslapis
METAR-TAF:

METAR-TAF

Oro uostai :

Dumas, Teksasas, Jungtinės Amerikos Valstijos

platuma: 35-51-28N, ilguma: 102-00-47W, Aukštis: 1129 m

Dabartinis oras

Ataskaita buvo paskelbta 33 minutes, ne 03:55 UTC
Vėjas 12 kt iš Pietryčių
Temperatūra 21°C
Drėgmė 78%
Slėgis 1015 hPa
Matomumas: 16.1 km
Išsisklaidę debesys ne aukštis 500 ft
Išsisklaidę debesys ne aukštis 900 ft
Išsisklaidę debesys ne aukštis 1600 ft
dulksna

METAR: KDUX 250355Z AUTO 14012KT 10SM -DZ SCT005 SCT009 SCT016 21/17 A2996 RMK AO2 T02080172

Laikas: 23:28 (04:28 UTC)


TAF: trūkstamas

Orai ataskaitas ir orų prognozės (METAR, TAF).

turimą stotys yra geltonos ir raudonos taškus žemėlapyje.

Perkelti pele per norėdami pamatyti stoties vardą.

Tada spustelėkite, norėdami matyti oro stebėjimo ir prognozės.

Norėdami pakeisti žemėlapį: spustelėkite ant žalios mygtukų su juodo kryžiaus žemyn,; žalią mygtuką su brūkšneliu, jei norite nutolinti; arba žalių rodyklių gretimoms žemėlapius.


METAR-TAF: